Time;durP1;ratioP1;P1;durP2;ratioP2;P2;SDS_P1;SDS_P2;PMS_P1;PMS_P2;Temp;Humidity;BMP_temperature;BMP_pressure;BME280_temperature;BME280_humidity;BME280_pressure;Samples;Min_cycle;Max_cycle;Signal;HPM_P1;HPM_P2
2022/12/28 00:02:27;;;;;;;1999.90;999.90;;;;;;;;;;4994141;28;20324;-71
2022/12/28 00:04:55;;;;;;;1999.90;999.90;;;;;;;;;;4995460;28;20238;-70
2022/12/28 00:07:23;;;;;;;1999.90;999.90;;;;;;;;;;4997426;28;20230;-71
2022/12/28 00:09:51;;;;;;;1999.90;999.90;;;;;;;;;;4995493;28;20803;-70
2022/12/28 00:12:21;;;;;;;1999.90;999.90;;;;;;;;;;4991884;28;20305;-70
2022/12/28 00:14:49;;;;;;;1999.90;999.90;;;;;;;;;;4994280;28;20305;-70
2022/12/28 00:17:17;;;;;;;1999.90;999.90;;;;;;;;;;4976136;28;20230;-70
2022/12/28 00:19:45;;;;;;;1999.90;999.90;;;;;;;;;;4994567;28;20233;-71
2022/12/28 00:22:12;;;;;;;1999.90;999.90;;;;;;;;;;4976671;28;20230;-71
2022/12/28 00:24:40;;;;;;;1999.90;999.90;;;;;;;;;;4995813;28;20238;-70
2022/12/28 00:27:08;;;;;;;1999.90;999.90;;;;;;;;;;4991461;28;20241;-70
2022/12/28 00:29:37;;;;;;;1999.90;999.90;;;;;;;;;;4974562;28;20234;-70
2022/12/28 00:32:05;;;;;;;1999.90;999.90;;;;;;;;;;4975983;28;20288;-70
2022/12/28 00:34:33;;;;;;;1999.90;999.90;;;;;;;;;;4993364;28;20229;-70
2022/12/28 00:37:01;;;;;;;1999.90;999.90;;;;;;;;;;4991345;28;21061;-71
2022/12/28 00:39:39;;;;;;;1999.90;999.90;;;;;;;;;;4993226;28;20237;-71
2022/12/28 00:42:07;;;;;;;1999.90;999.90;;;;;;;;;;4973921;28;20248;-70
2022/12/28 00:44:38;;;;;;;1999.90;999.90;;;;;;;;;;4979616;28;20242;-70
2022/12/28 00:47:06;;;;;;;1999.90;999.90;;;;;;;;;;4978184;28;20424;-70
2022/12/28 00:49:34;;;;;;;1999.90;999.90;;;;;;;;;;4996032;28;20237;-70
2022/12/28 00:52:02;;;;;;;1999.90;999.90;;;;;;;;;;4995049;28;20787;-69
2022/12/28 00:54:30;;;;;;;1999.90;999.90;;;;;;;;;;5019034;28;20232;-70
2022/12/28 00:56:58;;;;;;;1999.90;999.90;;;;;;;;;;5003314;28;20238;-70
2022/12/28 00:59:26;;;;;;;1999.90;999.90;;;;;;;;;;5003509;28;20238;-70
2022/12/28 01:01:55;;;;;;;1999.90;999.90;;;;;;;;;;5005222;28;20238;-71
2022/12/28 01:04:23;;;;;;;1999.90;999.90;;;;;;;;;;5003809;28;20801;-70
2022/12/28 01:06:51;;;;;;;1999.90;999.90;;;;;;;;;;4983569;28;20364;-71
2022/12/28 01:09:19;;;;;;;1999.90;999.90;;;;;;;;;;4978477;28;20244;-70
2022/12/28 01:11:47;;;;;;;1999.90;999.90;;;;;;;;;;5000402;28;21541;-70
2022/12/28 01:14:15;;;;;;;1999.90;999.90;;;;;;;;;;4980762;28;20721;-70
2022/12/28 01:16:42;;;;;;;1999.90;999.90;;;;;;;;;;5001243;28;20288;-70
2022/12/28 01:19:14;;;;;;;1999.90;999.90;;;;;;;;;;4979023;28;20317;-69
2022/12/28 01:21:42;;;;;;;1999.90;999.90;;;;;;;;;;4992630;28;20712;-70
2022/12/28 01:24:10;;;;;;;1999.90;999.90;;;;;;;;;;4980137;28;20241;-70
2022/12/28 01:26:38;;;;;;;1999.90;999.90;;;;;;;;;;4980024;28;20717;-70
2022/12/28 01:29:06;;;;;;;1999.90;999.90;;;;;;;;;;5000356;28;20229;-70
2022/12/28 01:31:34;;;;;;;1999.90;999.90;;;;;;;;;;4984349;28;20226;-70
2022/12/28 01:34:02;;;;;;;1999.90;999.90;;;;;;;;;;4982533;28;20229;-70
2022/12/28 01:36:33;;;;;;;1999.90;999.90;;;;;;;;;;4997066;28;20997;-69
2022/12/28 01:39:02;;;;;;;1999.90;999.90;;;;;;;;;;4980090;28;20230;-69
2022/12/28 01:41:32;;;;;;;1999.90;999.90;;;;;;;;;;4992962;28;20233;-69
2022/12/28 01:44:18;;;;;;;1999.90;999.90;;;;;;;;;;4997412;28;20234;-70
2022/12/28 01:46:48;;;;;;;1999.90;999.90;;;;;;;;;;4999294;28;20240;-70
2022/12/28 01:49:18;;;;;;;1999.90;999.90;;;;;;;;;;5015784;28;20313;-70
2022/12/28 01:51:50;;;;;;;1999.90;999.90;;;;;;;;;;4993763;28;20226;-70
2022/12/28 01:54:18;;;;;;;1999.90;999.90;;;;;;;;;;4999886;28;20226;-70
2022/12/28 01:56:47;;;;;;;1999.90;999.90;;;;;;;;;;4979650;28;20236;-70
2022/12/28 01:59:16;;;;;;;1999.90;999.90;;;;;;;;;;4976061;28;20348;-70
2022/12/28 02:01:44;;;;;;;1999.90;999.90;;;;;;;;;;4994133;28;20697;-70
2022/12/28 02:04:12;;;;;;;1999.90;999.90;;;;;;;;;;4976527;28;20720;-70
2022/12/28 02:06:40;;;;;;;1999.90;999.90;;;;;;;;;;4979726;28;21722;-70
2022/12/28 02:09:12;;;;;;;1999.90;999.90;;;;;;;;;;4991304;28;20897;-70
2022/12/28 02:11:40;;;;;;;1999.90;999.90;;;;;;;;;;4995704;28;20276;-70
2022/12/28 02:14:09;;;;;;;1999.90;999.90;;;;;;;;;;4978040;28;20240;-70
2022/12/28 02:16:37;;;;;;;1999.90;999.90;;;;;;;;;;5007332;28;20266;-70
2022/12/28 02:19:09;;;;;;;1999.90;999.90;;;;;;;;;;4990167;28;21178;-70
2022/12/28 02:21:42;;;;;;;1999.90;999.90;;;;;;;;;;4993756;28;20241;-70
2022/12/28 02:24:22;;;;;;;1999.90;999.90;;;;;;;;;;4989182;28;20231;-70
2022/12/28 02:26:53;;;;;;;1999.90;999.90;;;;;;;;;;4996234;28;20352;-70
2022/12/28 02:29:40;;;;;;;1999.90;999.90;;;;;;;;;;4990863;28;20237;-70
2022/12/28 02:32:17;;;;;;;1999.90;999.90;;;;;;;;;;4993545;28;20269;-70
2022/12/28 02:34:48;;;;;;;1999.90;999.90;;;;;;;;;;4993999;28;20230;-71
2022/12/28 02:37:18;;;;;;;1999.90;999.90;;;;;;;;;;4996235;28;20238;-70
2022/12/28 02:39:50;;;;;;;1999.90;999.90;;;;;;;;;;4991264;28;20261;-70
2022/12/28 02:42:19;;;;;;;1999.90;999.90;;;;;;;;;;4989261;28;20602;-70
2022/12/28 02:50:20;;;;;;;1999.90;999.90;;;;;;;;;;4995908;28;20713;-70
2022/12/28 02:52:58;;;;;;;1999.90;999.90;;;;;;;;;;4976382;28;20990;-70
2022/12/28 02:58:35;;;;;;;1999.90;999.90;;;;;;;;;;4976892;28;20233;-70
2022/12/28 03:01:08;;;;;;;1999.90;999.90;;;;;;;;;;4978260;28;20230;-70
2022/12/28 03:03:41;;;;;;;1999.90;999.90;;;;;;;;;;4977363;28;20330;-70
2022/12/28 03:09:03;;;;;;;1999.90;999.90;;;;;;;;;;5015502;28;20237;-70
2022/12/28 03:11:34;;;;;;;1999.90;999.90;;;;;;;;;;4995352;28;20320;-70
2022/12/28 03:14:03;;;;;;;1999.90;999.90;;;;;;;;;;4975803;28;20242;-70
2022/12/28 03:25:41;;;;;;;1999.90;999.90;;;;;;;;;;4978554;28;20673;-69
2022/12/28 03:33:23;;;;;;;1999.90;999.90;;;;;;;;;;4978632;28;20822;-69
2022/12/28 03:35:55;;;;;;;1999.90;999.90;;;;;;;;;;4977965;28;20267;-70
2022/12/28 03:38:27;;;;;;;1999.90;999.90;;;;;;;;;;4983296;28;20671;-72
2022/12/28 03:40:59;;;;;;;1999.90;999.90;;;;;;;;;;4978728;28;20242;-69
2022/12/28 03:43:41;;;;;;;1999.90;999.90;;;;;;;;;;4980763;28;20221;-70
2022/12/28 03:46:16;;;;;;;1999.90;999.90;;;;;;;;;;4980387;28;21043;-72
2022/12/28 03:48:45;;;;;;;1999.90;999.90;;;;;;;;;;4986041;28;20230;-71
2022/12/28 03:51:16;;;;;;;1999.90;999.90;;;;;;;;;;4999127;28;20237;-71
2022/12/28 03:53:46;;;;;;;1999.90;999.90;;;;;;;;;;4984942;28;20229;-72
2022/12/28 03:56:18;;;;;;;1999.90;999.90;;;;;;;;;;4989303;28;20226;-70
2022/12/28 03:58:46;;;;;;;1999.90;999.90;;;;;;;;;;4980307;28;20992;-71
2022/12/28 04:01:16;;;;;;;1999.90;999.90;;;;;;;;;;4974313;28;20230;-70
2022/12/28 04:03:44;;;;;;;1999.90;999.90;;;;;;;;;;4980105;28;20237;-70
2022/12/28 04:06:14;;;;;;;1999.90;999.90;;;;;;;;;;4981120;28;22221;-70
2022/12/28 04:08:45;;;;;;;1999.90;999.90;;;;;;;;;;4980194;28;20316;-70
2022/12/28 04:11:13;;;;;;;1999.90;999.90;;;;;;;;;;4993101;28;20230;-70
2022/12/28 04:13:44;;;;;;;1999.90;999.90;;;;;;;;;;4979537;28;20230;-70
2022/12/28 04:16:14;;;;;;;1999.90;999.90;;;;;;;;;;4976825;28;20738;-70
2022/12/28 04:18:43;;;;;;;1999.90;999.90;;;;;;;;;;4977617;28;20233;-70
2022/12/28 04:21:12;;;;;;;1999.90;999.90;;;;;;;;;;4978753;28;20296;-70
2022/12/28 04:23:42;;;;;;;1999.90;999.90;;;;;;;;;;4984103;28;20234;-70
2022/12/28 04:26:17;;;;;;;1999.90;999.90;;;;;;;;;;4979720;28;21030;-70
2022/12/28 04:28:48;;;;;;;1999.90;999.90;;;;;;;;;;4978454;28;21173;-70
2022/12/28 04:31:39;;;;;;;1999.90;999.90;;;;;;;;;;4975600;28;20250;-70
2022/12/28 04:34:10;;;;;;;1999.90;999.90;;;;;;;;;;4997015;28;20300;-70
2022/12/28 04:36:43;;;;;;;1999.90;999.90;;;;;;;;;;4987951;28;20229;-70
2022/12/28 04:39:14;;;;;;;1999.90;999.90;;;;;;;;;;4992435;28;20233;-70
2022/12/28 04:41:43;;;;;;;1999.90;999.90;;;;;;;;;;4993453;28;20226;-70
2022/12/28 04:44:11;;;;;;;1999.90;999.90;;;;;;;;;;4992832;28;20264;-70
2022/12/28 04:46:39;;;;;;;1999.90;999.90;;;;;;;;;;4994047;28;20238;-70
2022/12/28 04:49:06;;;;;;;1999.90;999.90;;;;;;;;;;4981748;28;20679;-70
2022/12/28 04:51:34;;;;;;;1999.90;999.90;;;;;;;;;;4994525;28;20229;-69
2022/12/28 04:54:02;;;;;;;1999.90;999.90;;;;;;;;;;5012571;28;20329;-69
2022/12/28 04:56:30;;;;;;;1999.90;999.90;;;;;;;;;;5014602;28;20346;-70
2022/12/28 04:59:00;;;;;;;1999.90;999.90;;;;;;;;;;4999511;28;21087;-70
2022/12/28 05:01:28;;;;;;;1999.90;999.90;;;;;;;;;;4997708;28;20240;-70
2022/12/28 05:03:57;;;;;;;1999.90;999.90;;;;;;;;;;4992861;28;20233;-70
2022/12/28 05:06:27;;;;;;;1999.90;999.90;;;;;;;;;;4992094;28;20296;-70
2022/12/28 05:08:55;;;;;;;1999.90;999.90;;;;;;;;;;4991696;28;20242;-70
2022/12/28 05:11:24;;;;;;;1999.90;999.90;;;;;;;;;;4994444;28;20318;-70
2022/12/28 05:13:52;;;;;;;1999.90;999.90;;;;;;;;;;4979137;28;20233;-70
2022/12/28 05:16:22;;;;;;;1999.90;999.90;;;;;;;;;;4995334;28;20257;-72
2022/12/28 05:18:50;;;;;;;1999.90;999.90;;;;;;;;;;4992936;28;20233;-70
2022/12/28 05:21:19;;;;;;;1999.90;999.90;;;;;;;;;;4992724;28;20233;-70
2022/12/28 05:23:47;;;;;;;1999.90;999.90;;;;;;;;;;4992415;28;20249;-70
2022/12/28 05:26:18;;;;;;;1999.90;999.90;;;;;;;;;;4992446;28;20226;-69
2022/12/28 05:28:46;;;;;;;1999.90;999.90;;;;;;;;;;4995762;28;20233;-70
2022/12/28 05:31:14;;;;;;;1999.90;999.90;;;;;;;;;;5001948;28;20406;-70
2022/12/28 05:33:44;;;;;;;1999.90;999.90;;;;;;;;;;4995320;28;20241;-70
2022/12/28 05:36:13;;;;;;;1999.90;999.90;;;;;;;;;;4994013;28;20353;-69
2022/12/28 05:38:41;;;;;;;1999.90;999.90;;;;;;;;;;5002379;28;20233;-70
2022/12/28 05:41:11;;;;;;;1999.90;999.90;;;;;;;;;;4999538;28;20240;-70
2022/12/28 05:43:38;;;;;;;1999.90;999.90;;;;;;;;;;5001554;28;20245;-70
2022/12/28 05:46:07;;;;;;;1999.90;999.90;;;;;;;;;;5001688;28;20317;-70
2022/12/28 05:48:35;;;;;;;1999.90;999.90;;;;;;;;;;4999975;28;20234;-69
2022/12/28 05:51:06;;;;;;;1999.90;999.90;;;;;;;;;;4999482;28;20231;-69
2022/12/28 05:53:34;;;;;;;1999.90;999.90;;;;;;;;;;4999516;28;22017;-69
2022/12/28 05:56:03;;;;;;;1999.90;999.90;;;;;;;;;;4996574;28;20248;-70
2022/12/28 05:58:35;;;;;;;1999.90;999.90;;;;;;;;;;4995948;28;21154;-69
2022/12/28 06:01:03;;;;;;;1999.90;999.90;;;;;;;;;;4994260;28;20803;-70
2022/12/28 06:03:31;;;;;;;1999.90;999.90;;;;;;;;;;4993931;28;20242;-70
2022/12/28 06:06:02;;;;;;;1999.90;999.90;;;;;;;;;;4994406;28;20765;-70
2022/12/28 06:08:32;;;;;;;1999.90;999.90;;;;;;;;;;4994367;28;20241;-69
2022/12/28 06:11:01;;;;;;;1999.90;999.90;;;;;;;;;;4976098;28;20241;-69
2022/12/28 06:13:29;;;;;;;1999.90;999.90;;;;;;;;;;4997886;28;20238;-69
2022/12/28 06:15:57;;;;;;;1999.90;999.90;;;;;;;;;;4978980;28;20229;-71
2022/12/28 06:18:28;;;;;;;1999.90;999.90;;;;;;;;;;5014611;28;20759;-69
2022/12/28 06:21:01;;;;;;;1999.90;999.90;;;;;;;;;;4996079;28;20238;-69
2022/12/28 06:23:29;;;;;;;1999.90;999.90;;;;;;;;;;4980372;28;20309;-69
2022/12/28 06:25:59;;;;;;;1999.90;999.90;;;;;;;;;;4993119;28;20230;-70
2022/12/28 06:28:27;;;;;;;1999.90;999.90;;;;;;;;;;4981368;28;20545;-70
2022/12/28 06:31:01;;;;;;;1999.90;999.90;;;;;;;;;;4994314;28;20238;-69
2022/12/28 06:33:29;;;;;;;1999.90;999.90;;;;;;;;;;4993234;28;20240;-69
2022/12/28 06:35:57;;;;;;;1999.90;999.90;;;;;;;;;;4991901;28;20241;-69
2022/12/28 06:38:28;;;;;;;1999.90;999.90;;;;;;;;;;4995450;28;20242;-70
2022/12/28 06:41:01;;;;;;;1999.90;999.90;;;;;;;;;;4994889;28;20265;-70
2022/12/28 06:43:42;;;;;;;1999.90;999.90;;;;;;;;;;5001253;28;20257;-70
2022/12/28 06:46:11;;;;;;;1999.90;999.90;;;;;;;;;;4997066;28;20234;-70
2022/12/28 06:48:39;;;;;;;1999.90;999.90;;;;;;;;;;4995775;28;20356;-70
2022/12/28 06:51:08;;;;;;;1999.90;999.90;;;;;;;;;;4980858;28;20261;-70
2022/12/28 06:53:36;;;;;;;1999.90;999.90;;;;;;;;;;5000288;28;20314;-70
2022/12/28 06:56:06;;;;;;;1999.90;999.90;;;;;;;;;;4997032;28;20238;-70
2022/12/28 06:58:34;;;;;;;1999.90;999.90;;;;;;;;;;4999328;28;20241;-70
2022/12/28 07:01:07;;;;;;;1999.90;999.90;;;;;;;;;;4998062;28;20240;-70
2022/12/28 07:03:35;;;;;;;1999.90;999.90;;;;;;;;;;5011715;28;20284;-70
2022/12/28 07:06:03;;;;;;;1999.90;999.90;;;;;;;;;;4997696;28;20240;-70
2022/12/28 07:08:31;;;;;;;1999.90;999.90;;;;;;;;;;5002569;28;20234;-69
2022/12/28 07:11:03;;;;;;;1999.90;999.90;;;;;;;;;;4995404;28;20337;-72
2022/12/28 07:13:31;;;;;;;1999.90;999.90;;;;;;;;;;4983535;28;20697;-70
2022/12/28 07:16:01;;;;;;;1999.90;999.90;;;;;;;;;;4993482;28;20225;-71
2022/12/28 07:18:31;;;;;;;1999.90;999.90;;;;;;;;;;4992422;28;20308;-70
2022/12/28 07:21:00;;;;;;;1999.90;999.90;;;;;;;;;;4993229;28;20225;-70
2022/12/28 07:23:30;;;;;;;1999.90;999.90;;;;;;;;;;4995469;28;20233;-69
2022/12/28 07:25:59;;;;;;;1999.90;999.90;;;;;;;;;;4994810;28;20289;-70
2022/12/28 07:28:26;;;;;;;1999.90;999.90;;;;;;;;;;5017422;28;20332;-70
2022/12/28 07:30:54;;;;;;;1999.90;999.90;;;;;;;;;;4979928;28;20755;-70
2022/12/28 07:33:22;;;;;;;1999.90;999.90;;;;;;;;;;4998925;28;20265;-70
2022/12/28 07:35:51;;;;;;;1999.90;999.90;;;;;;;;;;4997844;28;20712;-69
2022/12/28 07:38:19;;;;;;;1999.90;999.90;;;;;;;;;;4982587;28;20297;-70
2022/12/28 07:40:48;;;;;;;1999.90;999.90;;;;;;;;;;4980654;28;20238;-70
2022/12/28 07:43:16;;;;;;;1999.90;999.90;;;;;;;;;;4994180;28;20261;-70
2022/12/28 07:45:44;;;;;;;1999.90;999.90;;;;;;;;;;4973600;28;20317;-70
2022/12/28 07:48:12;;;;;;;1999.90;999.90;;;;;;;;;;4992765;28;20253;-69
2022/12/28 07:50:40;;;;;;;1999.90;999.90;;;;;;;;;;4994465;28;20250;-70
2022/12/28 07:53:09;;;;;;;1999.90;999.90;;;;;;;;;;4990478;28;20296;-70
2022/12/28 07:55:39;;;;;;;1999.90;999.90;;;;;;;;;;4995301;28;20234;-70
2022/12/28 07:58:07;;;;;;;1999.90;999.90;;;;;;;;;;4991383;28;20249;-70
2022/12/28 08:00:34;;;;;;;1999.90;999.90;;;;;;;;;;4979234;28;20238;-70
2022/12/28 08:03:02;;;;;;;1999.90;999.90;;;;;;;;;;4994761;28;20244;-71
2022/12/28 08:05:30;;;;;;;1999.90;999.90;;;;;;;;;;4995316;28;20708;-71
2022/12/28 08:07:58;;;;;;;1999.90;999.90;;;;;;;;;;4994140;28;20253;-70
2022/12/28 08:10:33;;;;;;;1999.90;999.90;;;;;;;;;;4997461;28;20230;-70
2022/12/28 08:13:01;;;;;;;1999.90;999.90;;;;;;;;;;4995518;28;20736;-70
2022/12/28 08:15:29;;;;;;;1999.90;999.90;;;;;;;;;;4996002;28;20233;-70
2022/12/28 08:17:57;;;;;;;1999.90;999.90;;;;;;;;;;4995360;28;20269;-70
2022/12/28 08:20:24;;;;;;;1999.90;999.90;;;;;;;;;;5013339;28;20419;-70
2022/12/28 08:22:53;;;;;;;1999.90;999.90;;;;;;;;;;4996885;28;20229;-68
2022/12/28 08:25:21;;;;;;;1999.90;999.90;;;;;;;;;;4995658;28;20716;-68
2022/12/28 08:27:50;;;;;;;1999.90;999.90;;;;;;;;;;4996018;28;20431;-68
2022/12/28 08:30:18;;;;;;;1999.90;999.90;;;;;;;;;;4997549;28;20415;-67
2022/12/28 08:32:46;;;;;;;1999.90;999.90;;;;;;;;;;4984882;28;20221;-70
2022/12/28 08:35:13;;;;;;;1999.90;999.90;;;;;;;;;;5000747;28;21464;-70
2022/12/28 08:37:41;;;;;;;1999.90;999.90;;;;;;;;;;5001430;28;20751;-70
2022/12/28 08:40:10;;;;;;;1999.90;999.90;;;;;;;;;;4998318;28;20230;-70
2022/12/28 08:42:38;;;;;;;1999.90;999.90;;;;;;;;;;4979726;28;20745;-70
2022/12/28 08:45:08;;;;;;;1999.90;999.90;;;;;;;;;;4997700;28;20230;-70
2022/12/28 08:47:35;;;;;;;1999.90;999.90;;;;;;;;;;4993553;28;20252;-70
2022/12/28 08:50:04;;;;;;;1999.90;999.90;;;;;;;;;;4998079;28;20672;-71
2022/12/28 08:52:32;;;;;;;1999.90;999.90;;;;;;;;;;4997240;28;20236;-70
2022/12/28 08:55:00;;;;;;;1999.90;999.90;;;;;;;;;;4994035;28;20779;-70
2022/12/28 08:57:28;;;;;;;1999.90;999.90;;;;;;;;;;5000118;28;20257;-70
2022/12/28 08:59:56;;;;;;;1999.90;999.90;;;;;;;;;;4998414;28;20955;-69
2022/12/28 09:02:25;;;;;;;1999.90;999.90;;;;;;;;;;5008376;28;20319;-70
2022/12/28 09:04:53;;;;;;;1999.90;999.90;;;;;;;;;;4994755;28;20346;-70
2022/12/28 09:07:21;;;;;;;1999.90;999.90;;;;;;;;;;4980274;28;20705;-70
2022/12/28 09:09:49;;;;;;;1999.90;999.90;;;;;;;;;;5001332;28;20418;-72
2022/12/28 09:12:16;;;;;;;1999.90;999.90;;;;;;;;;;5022527;28;20320;-70
2022/12/28 09:14:44;;;;;;;1999.90;999.90;;;;;;;;;;5005822;28;20226;-71
2022/12/28 09:17:12;;;;;;;1999.90;999.90;;;;;;;;;;5004046;28;20245;-71
2022/12/28 09:19:41;;;;;;;1999.90;999.90;;;;;;;;;;5008241;28;20241;-71
2022/12/28 09:22:09;;;;;;;1999.90;999.90;;;;;;;;;;5018598;28;20241;-71
2022/12/28 09:24:37;;;;;;;1999.90;999.90;;;;;;;;;;5002153;28;20234;-71
2022/12/28 09:27:05;;;;;;;1999.90;999.90;;;;;;;;;;4996551;28;20237;-70
2022/12/28 09:29:32;;;;;;;1999.90;999.90;;;;;;;;;;4998255;28;20260;-71
2022/12/28 09:32:00;;;;;;;1999.90;999.90;;;;;;;;;;5009450;28;21219;-71
2022/12/28 09:34:29;;;;;;;1999.90;999.90;;;;;;;;;;4979941;28;20238;-71
2022/12/28 09:37:07;;;;;;;1999.90;999.90;;;;;;;;;;5006629;28;20307;-71
2022/12/28 09:39:35;;;;;;;1999.90;999.90;;;;;;;;;;4989632;28;20241;-71
2022/12/28 09:42:06;;;;;;;1999.90;999.90;;;;;;;;;;4973502;28;20420;-71
2022/12/28 09:44:40;;;;;;;1999.90;999.90;;;;;;;;;;4991788;28;21061;-70
2022/12/28 09:47:12;;;;;;;1999.90;999.90;;;;;;;;;;4992095;28;21663;-70
2022/12/28 09:49:42;;;;;;;1999.90;999.90;;;;;;;;;;4993601;28;21639;-71
2022/12/28 09:52:24;;;;;;;1999.90;999.90;;;;;;;;;;4991938;28;20417;-70
2022/12/28 09:54:52;;;;;;;1999.90;999.90;;;;;;;;;;4990627;28;20222;-70
2022/12/28 09:57:20;;;;;;;1999.90;999.90;;;;;;;;;;4993434;28;20230;-70
2022/12/28 09:59:49;;;;;;;1999.90;999.90;;;;;;;;;;5006336;28;20396;-69
2022/12/28 10:02:19;;;;;;;1999.90;999.90;;;;;;;;;;4968376;28;20234;-71
2022/12/28 10:04:48;;;;;;;1999.90;999.90;;;;;;;;;;4972895;28;20234;-70
2022/12/28 10:07:18;;;;;;;1999.90;999.90;;;;;;;;;;4977500;28;20378;-70
2022/12/28 10:09:46;;;;;;;1999.90;999.90;;;;;;;;;;4992342;28;20240;-69
2022/12/28 10:12:15;;;;;;;1999.90;999.90;;;;;;;;;;4989746;28;21110;-70
2022/12/28 10:14:45;;;;;;;1999.90;999.90;;;;;;;;;;4999545;28;20712;-70
2022/12/28 10:17:13;;;;;;;1999.90;999.90;;;;;;;;;;4988652;28;20233;-70
2022/12/28 10:19:44;;;;;;;1999.90;999.90;;;;;;;;;;4984951;28;20303;-71
2022/12/28 10:22:14;;;;;;;1999.90;999.90;;;;;;;;;;4958484;28;20312;-70
2022/12/28 10:24:44;;;;;;;1999.90;999.90;;;;;;;;;;4989124;28;20404;-70
2022/12/28 10:27:16;;;;;;;1999.90;999.90;;;;;;;;;;4985461;28;20630;-69
2022/12/28 10:29:44;;;;;;;1999.90;999.90;;;;;;;;;;4992385;28;20407;-70
2022/12/28 10:32:12;;;;;;;1999.90;999.90;;;;;;;;;;4985814;28;20262;-70
2022/12/28 10:34:53;;;;;;;1999.90;999.90;;;;;;;;;;4989137;28;20474;-70
2022/12/28 10:37:21;;;;;;;1999.90;999.90;;;;;;;;;;4973602;28;20292;-70
2022/12/28 10:39:51;;;;;;;1999.90;999.90;;;;;;;;;;4996321;28;20245;-70
2022/12/28 10:42:21;;;;;;;1999.90;999.90;;;;;;;;;;4981191;28;20320;-70
2022/12/28 10:44:50;;;;;;;1999.90;999.90;;;;;;;;;;4983336;28;20415;-69
2022/12/28 10:47:23;;;;;;;1999.90;999.90;;;;;;;;;;4968708;28;20229;-70
2022/12/28 10:49:51;;;;;;;1999.90;999.90;;;;;;;;;;4987858;28;20412;-70
2022/12/28 10:52:39;;;;;;;1999.90;999.90;;;;;;;;;;4980909;28;20236;-70
2022/12/28 10:58:15;;;;;;;1999.90;999.90;;;;;;;;;;5077066;28;20726;-69
2022/12/28 11:00:58;;;;;;;1999.90;999.90;;;;;;;;;;5047632;28;20246;-69
2022/12/28 11:03:27;;;;;;;1999.90;999.90;;;;;;;;;;5063889;28;20385;-71
2022/12/28 11:06:14;;;;;;;1999.90;999.90;;;;;;;;;;5070796;28;20236;-70
2022/12/28 11:08:42;;;;;;;1999.90;999.90;;;;;;;;;;5070216;28;21537;-70
2022/12/28 11:11:18;;;;;;;1999.90;999.90;;;;;;;;;;5074414;28;20233;-70
2022/12/28 11:13:49;;;;;;;1999.90;999.90;;;;;;;;;;5076795;28;20420;-70
2022/12/28 11:16:17;;;;;;;1999.90;999.90;;;;;;;;;;5078064;27;20239;-70
2022/12/28 11:18:45;;;;;;;1999.90;999.90;;;;;;;;;;5055136;28;20238;-66
2022/12/28 11:21:16;;;;;;;1999.90;999.90;;;;;;;;;;5043081;28;21882;-66
2022/12/28 11:23:45;;;;;;;1999.90;999.90;;;;;;;;;;5050646;28;20235;-67
2022/12/28 11:26:12;;;;;;;1999.90;999.90;;;;;;;;;;5064897;28;20361;-70
2022/12/28 11:28:43;;;;;;;1999.90;999.90;;;;;;;;;;5051615;28;20403;-69
2022/12/28 11:31:16;;;;;;;1999.90;999.90;;;;;;;;;;5067435;28;20239;-69
2022/12/28 11:33:45;;;;;;;1999.90;999.90;;;;;;;;;;5045472;28;20497;-69
2022/12/28 11:36:14;;;;;;;1999.90;999.90;;;;;;;;;;5071481;28;20231;-70
2022/12/28 11:38:43;;;;;;;1999.90;999.90;;;;;;;;;;5069125;28;20406;-71
2022/12/28 11:41:12;;;;;;;1999.90;999.90;;;;;;;;;;5076165;28;20236;-70
2022/12/28 11:43:48;;;;;;;1999.90;999.90;;;;;;;;;;5070023;28;20342;-70
2022/12/28 11:46:34;;;;;;;1999.90;999.90;;;;;;;;;;5062299;28;20237;-71
2022/12/28 11:49:06;;;;;;;1999.90;999.90;;;;;;;;;;5076121;28;20249;-71
2022/12/28 11:51:35;;;;;;;1999.90;999.90;;;;;;;;;;5096617;27;20281;-71
2022/12/28 11:54:03;;;;;;;1999.90;999.90;;;;;;;;;;5073509;28;20235;-71
2022/12/28 11:56:46;;;;;;;1999.90;999.90;;;;;;;;;;5072185;28;20976;-70
2022/12/28 11:59:21;;;;;;;1999.90;999.90;;;;;;;;;;5072194;28;20265;-72
2022/12/28 12:01:50;;;;;;;1999.90;999.90;;;;;;;;;;5075029;28;20349;-71
2022/12/28 12:04:33;;;;;;;1999.90;999.90;;;;;;;;;;5075088;28;21343;-71
2022/12/28 12:07:22;;;;;;;1999.90;999.90;;;;;;;;;;5054538;28;20220;-70
2022/12/28 12:10:16;;;;;;;1999.90;999.90;;;;;;;;;;5061296;28;20246;-70
2022/12/28 12:12:50;;;;;;;1999.90;999.90;;;;;;;;;;5060672;28;20662;-71
2022/12/28 12:15:20;;;;;;;1999.90;999.90;;;;;;;;;;5058726;28;20249;-71
2022/12/28 12:17:49;;;;;;;1999.90;999.90;;;;;;;;;;5062231;28;20239;-70
2022/12/28 12:20:20;;;;;;;1999.90;999.90;;;;;;;;;;5030294;28;20228;-71
2022/12/28 12:22:50;;;;;;;1999.90;999.90;;;;;;;;;;5058063;28;20251;-70
2022/12/28 12:25:21;;;;;;;1999.90;999.90;;;;;;;;;;5045017;28;20273;-70
2022/12/28 12:27:54;;;;;;;1999.90;999.90;;;;;;;;;;5055202;28;20236;-71
2022/12/28 12:30:23;;;;;;;1999.90;999.90;;;;;;;;;;5059892;28;20759;-70
2022/12/28 12:32:53;;;;;;;1999.90;999.90;;;;;;;;;;5063208;28;20231;-71
2022/12/28 12:35:22;;;;;;;1999.90;999.90;;;;;;;;;;5037163;28;20343;-72
2022/12/28 12:37:53;;;;;;;1999.90;999.90;;;;;;;;;;5060863;28;20236;-70
2022/12/28 12:40:43;;;;;;;1999.90;999.90;;;;;;;;;;5066717;28;20317;-71
2022/12/28 12:43:23;;;;;;;1999.90;999.90;;;;;;;;;;5048359;28;20227;-70
2022/12/28 12:45:55;;;;;;;1999.90;999.90;;;;;;;;;;5043148;28;20223;-71
2022/12/28 12:48:31;;;;;;;1999.90;999.90;;;;;;;;;;5073346;28;20231;-71
2022/12/28 12:51:03;;;;;;;1999.90;999.90;;;;;;;;;;5065928;28;20737;-71
2022/12/28 12:53:48;;;;;;;1999.90;999.90;;;;;;;;;;5065958;28;20250;-71
2022/12/28 12:56:23;;;;;;;1999.90;999.90;;;;;;;;;;5052437;28;20271;-71
2022/12/28 12:58:57;;;;;;;1999.90;999.90;;;;;;;;;;5073851;28;20234;-71
2022/12/28 13:01:30;;;;;;;1999.90;999.90;;;;;;;;;;5058583;28;20259;-71
2022/12/28 13:04:04;;;;;;;1999.90;999.90;;;;;;;;;;5054865;28;20698;-71
2022/12/28 13:06:34;;;;;;;1999.90;999.90;;;;;;;;;;5053938;28;20394;-71
2022/12/28 13:09:02;;;;;;;1999.90;999.90;;;;;;;;;;5051027;28;20392;-71
2022/12/28 13:11:35;;;;;;;1999.90;999.90;;;;;;;;;;5042233;28;20502;-71
2022/12/28 13:14:05;;;;;;;1999.90;999.90;;;;;;;;;;5061773;28;20387;-70
2022/12/28 13:16:33;;;;;;;1999.90;999.90;;;;;;;;;;5058860;28;20500;-69
2022/12/28 13:19:02;;;;;;;1999.90;999.90;;;;;;;;;;5056921;28;20240;-69
2022/12/28 13:21:39;;;;;;;1999.90;999.90;;;;;;;;;;5055946;28;20506;-70
2022/12/28 13:24:18;;;;;;;1999.90;999.90;;;;;;;;;;5058558;28;20377;-69
2022/12/28 13:26:46;;;;;;;1999.90;999.90;;;;;;;;;;5039062;28;20506;-69
2022/12/28 13:29:17;;;;;;;1999.90;999.90;;;;;;;;;;5056997;28;20242;-69
2022/12/28 13:31:48;;;;;;;1999.90;999.90;;;;;;;;;;5061973;28;20232;-70
2022/12/28 13:34:18;;;;;;;1999.90;999.90;;;;;;;;;;5057856;28;20714;-70
2022/12/28 13:36:52;;;;;;;1999.90;999.90;;;;;;;;;;5057110;28;20920;-69
2022/12/28 13:39:21;;;;;;;1999.90;999.90;;;;;;;;;;5060748;28;20813;-70
2022/12/28 13:41:50;;;;;;;1999.90;999.90;;;;;;;;;;5058508;28;20239;-69
2022/12/28 13:44:41;;;;;;;1999.90;999.90;;;;;;;;;;5055160;28;20258;-69
2022/12/28 13:47:13;;;;;;;1999.90;999.90;;;;;;;;;;5056378;28;22133;-69
2022/12/28 13:49:43;;;;;;;1999.90;999.90;;;;;;;;;;5064584;28;20234;-70
2022/12/28 13:52:12;;;;;;;1999.90;999.90;;;;;;;;;;5057796;28;20245;-70
2022/12/28 13:54:44;;;;;;;1999.90;999.90;;;;;;;;;;5058812;28;20240;-69
2022/12/28 13:57:13;;;;;;;1999.90;999.90;;;;;;;;;;5063858;28;20229;-70
2022/12/28 14:00:03;;;;;;;1999.90;999.90;;;;;;;;;;5068183;28;20235;-70
2022/12/28 14:02:32;;;;;;;1999.90;999.90;;;;;;;;;;5068722;28;21491;-69
2022/12/28 14:05:01;;;;;;;1999.90;999.90;;;;;;;;;;5072870;28;20264;-70
2022/12/28 14:07:30;;;;;;;1999.90;999.90;;;;;;;;;;5057339;28;20227;-69
2022/12/28 14:09:57;;;;;;;1999.90;999.90;;;;;;;;;;5045384;28;20235;-69
2022/12/28 14:12:26;;;;;;;1999.90;999.90;;;;;;;;;;5045161;28;20789;-70
2022/12/28 14:14:54;;;;;;;1999.90;999.90;;;;;;;;;;5060960;28;20247;-69
2022/12/28 14:17:24;;;;;;;1999.90;999.90;;;;;;;;;;5046216;28;20232;-69
2022/12/28 14:19:54;;;;;;;1999.90;999.90;;;;;;;;;;5045756;28;20723;-69
2022/12/28 14:22:29;;;;;;;1999.90;999.90;;;;;;;;;;5057978;28;20421;-70
2022/12/28 14:24:58;;;;;;;1999.90;999.90;;;;;;;;;;5057763;28;20338;-69
2022/12/28 14:27:27;;;;;;;1999.90;999.90;;;;;;;;;;5060680;28;20279;-69
2022/12/28 14:29:56;;;;;;;1999.90;999.90;;;;;;;;;;5053527;28;20240;-69